createdAt,value
2023-03-27T05:24:21.358Z,128.00
2023-03-27T05:25:21.308Z,140.00
2023-03-27T05:26:21.695Z,156.00
2023-03-27T05:27:21.272Z,168.00
2023-03-27T05:28:21.709Z,180.00
2023-03-27T05:29:22.430Z,192.00
2023-03-27T05:30:28.371Z,208.00
2023-03-27T05:31:21.804Z,220.00
2023-03-27T05:32:21.259Z,232.00
2023-03-27T05:33:22.557Z,244.00
2023-03-27T05:34:21.476Z,252.00
2023-03-27T05:35:21.188Z,264.00
2023-03-27T05:36:21.164Z,272.00
2023-03-27T05:37:21.223Z,280.00
2023-03-27T05:38:21.150Z,300.00
2023-03-27T05:39:21.169Z,320.00
2023-03-27T05:40:21.170Z,332.00
2023-03-27T05:41:21.109Z,348.00
2023-03-27T05:42:21.908Z,360.00
2023-03-27T05:43:21.124Z,372.00
2023-03-27T05:44:22.247Z,376.00
2023-03-27T05:45:21.222Z,392.00
2023-03-27T05:46:21.843Z,400.00
2023-03-27T05:47:21.021Z,412.00
2023-03-27T05:48:21.844Z,424.00
2023-03-27T05:49:21.089Z,436.00
2023-03-27T05:50:21.674Z,452.00
2023-03-27T05:51:21.164Z,472.00
2023-03-27T05:52:21.098Z,496.00
2023-03-27T05:53:28.846Z,516.00
2023-03-27T05:54:21.993Z,540.00
2023-03-27T05:55:21.723Z,564.00
2023-03-27T05:56:20.913Z,584.00
2023-03-27T05:57:20.917Z,604.00
2023-03-27T05:58:20.966Z,624.00
2023-03-27T05:59:20.924Z,652.00
2023-03-27T06:00:20.957Z,676.00
2023-03-27T06:01:20.859Z,712.00
2023-03-27T06:02:21.572Z,752.00
2023-03-27T06:03:21.164Z,792.00
2023-03-27T06:04:20.901Z,840.00
2023-03-27T06:05:20.817Z,900.00
2023-03-27T06:06:20.845Z,952.00
2023-03-27T06:07:21.047Z,1016.00
2023-03-27T06:08:20.813Z,1068.00
2023-03-27T06:09:21.106Z,1112.00
2023-03-27T06:10:20.763Z,1168.00
2023-03-27T06:11:20.900Z,1252.00
2023-03-27T06:12:20.770Z,1372.00
2023-03-27T06:13:20.718Z,1500.00
2023-03-27T06:14:20.921Z,1632.00
2023-03-27T06:15:20.776Z,1728.00
2023-03-27T06:16:20.775Z,1696.00
2023-03-27T06:17:21.292Z,1712.00
2023-03-27T06:18:20.704Z,1660.00
2023-03-27T06:19:20.785Z,1660.00
2023-03-27T06:20:20.965Z,1704.00
2023-03-27T06:21:20.985Z,1716.00
2023-03-27T06:22:20.753Z,1724.00
2023-03-27T06:23:20.644Z,1780.00
2023-03-27T06:24:20.700Z,1868.00
2023-03-27T06:25:20.646Z,1856.00
2023-03-27T06:26:20.589Z,1920.00
2023-03-27T06:27:20.766Z,1752.00
2023-03-27T06:28:20.776Z,1328.00
2023-03-27T06:29:21.830Z,2068.00
2023-03-27T06:30:20.711Z,2260.00
2023-03-27T06:31:20.596Z,2080.00
2023-03-27T06:32:20.492Z,2320.00
2023-03-27T06:33:20.486Z,2296.00
2023-03-27T06:34:20.611Z,2204.00
2023-03-27T06:35:20.410Z,2312.00
2023-03-27T06:36:20.673Z,2376.00
2023-03-27T06:37:21.505Z,2368.00
2023-03-27T06:38:20.416Z,2360.00
2023-03-27T06:39:21.041Z,2456.00
2023-03-27T06:40:20.366Z,2500.00
2023-03-27T06:41:20.450Z,2564.00
2023-03-27T06:42:20.567Z,2620.00
2023-03-27T06:43:20.338Z,2660.00
2023-03-27T06:44:20.485Z,2688.00
2023-03-27T06:45:20.376Z,2664.00
2023-03-27T06:46:20.308Z,2632.00
2023-03-27T06:47:20.344Z,2644.00
2023-03-27T06:48:21.964Z,2724.00
2023-03-27T06:49:20.443Z,2852.00
2023-03-27T06:50:20.531Z,2860.00
2023-03-27T06:51:20.212Z,3068.00
2023-03-27T06:52:20.276Z,3416.00
2023-03-27T06:54:20.176Z,3256.00
2023-03-27T06:55:20.373Z,3328.00
2023-03-27T06:56:20.547Z,3296.00
2023-03-27T06:57:20.275Z,3088.00
2023-03-27T06:58:20.104Z,2672.00
2023-03-27T06:59:20.121Z,2796.00
2023-03-27T07:00:20.279Z,3220.00
2023-03-27T07:01:30.121Z,2948.00
2023-03-27T07:02:20.052Z,2372.00
2023-03-27T07:03:20.092Z,2200.00
2023-03-27T07:04:20.008Z,2308.00
2023-03-27T07:05:20.090Z,2064.00
2023-03-27T07:06:20.042Z,1976.00
2023-03-27T07:07:20.124Z,1860.00
2023-03-27T07:08:24.331Z,1876.00
2023-03-27T07:09:21.007Z,1996.00
2023-03-27T07:10:19.970Z,2332.00
2023-03-27T07:11:20.033Z,3144.00
2023-03-27T07:12:19.929Z,3300.00
2023-03-27T07:13:19.922Z,4012.00
2023-03-27T07:14:19.953Z,4592.00
2023-03-27T07:15:28.800Z,4596.00
2023-03-27T07:16:20.229Z,4644.00
2023-03-27T07:17:20.206Z,4340.00
2023-03-27T07:18:20.194Z,2912.00
2023-03-27T07:19:20.138Z,3408.00
2023-03-27T07:20:20.018Z,2688.00
2023-03-27T07:21:20.214Z,2668.00
2023-03-27T07:22:19.943Z,2608.00
2023-03-27T07:23:20.159Z,2384.00
2023-03-27T07:24:19.875Z,2396.00
2023-03-27T07:25:20.032Z,2168.00
2023-03-27T07:26:20.122Z,2224.00
2023-03-27T07:27:19.913Z,2364.00
2023-03-27T07:28:20.029Z,2436.00
2023-03-27T07:29:19.795Z,2480.00
2023-03-27T07:30:21.372Z,2456.00
2023-03-27T07:31:36.552Z,2476.00
2023-03-27T07:32:33.856Z,2540.00
2023-03-27T07:33:20.914Z,2668.00
2023-03-27T07:34:20.416Z,2956.00
2023-03-27T07:35:19.767Z,3172.00
2023-03-27T07:36:19.785Z,3192.00
2023-03-27T07:37:19.674Z,3096.00
2023-03-27T07:38:19.716Z,3048.00
2023-03-27T07:39:20.263Z,3016.00
2023-03-27T07:40:21.775Z,2904.00
2023-03-27T07:41:19.838Z,2776.00
2023-03-27T07:42:19.693Z,2620.00
2023-03-27T07:43:19.977Z,2416.00
2023-03-27T07:44:20.306Z,2168.00
2023-03-27T07:45:19.972Z,1984.00
2023-03-27T07:46:19.950Z,1984.00
2023-03-27T07:47:19.702Z,2028.00
2023-03-27T07:48:19.917Z,1936.00
2023-03-27T07:49:40.070Z,1924.00
2023-03-27T07:50:20.901Z,1888.00
2023-03-27T07:51:19.749Z,2120.00
2023-03-27T07:52:20.013Z,3756.00
2023-03-27T07:53:33.513Z,2992.00
2023-03-27T07:54:20.932Z,5128.00
2023-03-27T07:55:19.694Z,4040.00
2023-03-27T07:56:19.745Z,3804.00
2023-03-27T07:57:19.574Z,3264.00
2023-03-27T07:58:19.667Z,3492.00
2023-03-27T07:59:19.912Z,3940.00
2023-03-27T08:00:19.715Z,3712.00
2023-03-27T08:01:19.559Z,3536.00
2023-03-27T08:02:19.602Z,3764.00
2023-03-27T08:03:19.897Z,3156.00
2023-03-27T08:04:19.943Z,3296.00
2023-03-27T08:05:21.185Z,3524.00
2023-03-27T08:06:19.682Z,3740.00
2023-03-27T08:07:19.400Z,3808.00
2023-03-27T08:08:20.233Z,3984.00
2023-03-27T08:09:19.856Z,4664.00
2023-03-27T08:10:19.780Z,4748.00
2023-03-27T08:11:30.201Z,4408.00
2023-03-27T08:12:20.703Z,3932.00
2023-03-27T08:13:19.324Z,2360.00
2023-03-27T08:14:19.258Z,3700.00
2023-03-27T08:15:19.234Z,3864.00
2023-03-27T08:16:19.310Z,4316.00
2023-03-27T08:17:21.424Z,4464.00
2023-03-27T08:18:19.456Z,4724.00
2023-03-27T08:19:19.333Z,4988.00
2023-03-27T08:20:19.138Z,5800.00
2023-03-27T08:21:19.234Z,3640.00
2023-03-27T08:22:19.193Z,6112.00
2023-03-27T08:23:19.480Z,6248.00
2023-03-27T08:24:19.327Z,6172.00
2023-03-27T08:25:19.274Z,4232.00
2023-03-27T08:26:19.149Z,5192.00
2023-03-27T08:27:19.158Z,4860.00
2023-03-27T08:28:19.086Z,5144.00
2023-03-27T08:29:19.465Z,5820.00
2023-03-27T08:30:19.049Z,6468.00
2023-03-27T08:31:19.050Z,5724.00
2023-03-27T08:32:19.087Z,5416.00
2023-03-27T08:33:19.061Z,5752.00
2023-03-27T08:34:19.200Z,4724.00
2023-03-27T08:35:19.062Z,5536.00
2023-03-27T08:36:19.055Z,5596.00
2023-03-27T08:37:18.944Z,5288.00
2023-03-27T08:38:26.106Z,4316.00
2023-03-27T08:39:19.898Z,6848.00
2023-03-27T08:40:18.923Z,6528.00
2023-03-27T08:41:18.869Z,5632.00
2023-03-27T08:42:19.396Z,5464.00
2023-03-27T08:43:18.973Z,5100.00
2023-03-27T08:44:18.993Z,8032.00
2023-03-27T08:45:18.829Z,8496.00
2023-03-27T08:46:18.935Z,8056.00
2023-03-27T08:47:18.837Z,5436.00
2023-03-27T08:48:20.441Z,4516.00
2023-03-27T08:49:18.902Z,3916.00
2023-03-27T08:50:19.692Z,3452.00
2023-03-27T08:51:18.775Z,2784.00
2023-03-27T08:52:19.061Z,2916.00
2023-03-27T08:53:19.012Z,3396.00
2023-03-27T08:54:18.781Z,4216.00
2023-03-27T08:55:18.828Z,4164.00
2023-03-27T08:56:19.138Z,3692.00
2023-03-27T08:57:18.781Z,3176.00
2023-03-27T08:58:18.741Z,2552.00
2023-03-27T08:59:19.188Z,2512.00
2023-03-27T09:00:18.747Z,2928.00
2023-03-27T09:01:18.789Z,2684.00
2023-03-27T09:02:18.905Z,2392.00
2023-03-27T09:03:18.852Z,2720.00
2023-03-27T09:04:18.587Z,3524.00
2023-03-27T09:05:18.603Z,3700.00
2023-03-27T09:06:18.613Z,3088.00
2023-03-27T09:07:18.726Z,2776.00
2023-03-27T09:08:18.555Z,5436.00
2023-03-27T09:09:18.588Z,2764.00
2023-03-27T09:10:18.602Z,4572.00
2023-03-27T09:11:19.925Z,6096.00
2023-03-27T09:12:18.521Z,6008.00
2023-03-27T09:13:18.544Z,5992.00
2023-03-27T09:14:18.426Z,6148.00
2023-03-27T09:15:18.476Z,6324.00
2023-03-27T09:16:18.455Z,6264.00
2023-03-27T09:17:18.417Z,6124.00
2023-03-27T09:18:18.425Z,6008.00
2023-03-27T09:19:18.559Z,6760.00
2023-03-27T09:20:18.435Z,7268.00
2023-03-27T09:21:18.969Z,5444.00
2023-03-27T09:22:18.420Z,4568.00
2023-03-27T09:23:20.943Z,5260.00
2023-03-27T09:24:18.493Z,5628.00
2023-03-27T09:25:18.542Z,5100.00
2023-03-27T09:26:18.536Z,6248.00
2023-03-27T09:27:18.400Z,5220.00
2023-03-27T09:28:18.435Z,3304.00
2023-03-27T09:29:19.953Z,3656.00
2023-03-27T09:30:18.353Z,3228.00
2023-03-27T09:31:18.792Z,5432.00
2023-03-27T09:32:18.557Z,5344.00
2023-03-27T09:33:18.371Z,5496.00
2023-03-27T09:34:19.660Z,5384.00
2023-03-27T09:35:18.448Z,5032.00
2023-03-27T09:36:18.253Z,6152.00
2023-03-27T09:37:18.282Z,6200.00
2023-03-27T09:38:18.187Z,5836.00
2023-03-27T09:39:18.649Z,6276.00
2023-03-27T09:40:18.234Z,7048.00
2023-03-27T09:41:18.992Z,4744.00
2023-03-27T09:42:18.216Z,7428.00
2023-03-27T09:43:18.060Z,8524.00
2023-03-27T09:44:18.163Z,8004.00
2023-03-27T09:45:18.062Z,5276.00
2023-03-27T09:46:18.183Z,5212.00
2023-03-27T09:47:18.060Z,4816.00
2023-03-27T09:48:18.190Z,6852.00
2023-03-27T09:49:18.406Z,4684.00
2023-03-27T09:50:18.024Z,7300.00
2023-03-27T09:51:18.986Z,4900.00
2023-03-27T09:52:19.018Z,4776.00
2023-03-27T09:53:19.108Z,5212.00
2023-03-27T09:54:17.974Z,4748.00
2023-03-27T09:55:18.346Z,4224.00
2023-03-27T09:56:17.961Z,4408.00
2023-03-27T09:57:19.867Z,4208.00
2023-03-27T09:58:38.809Z,4320.00
2023-03-27T09:59:59.901Z,4548.00
2023-03-27T10:00:59.170Z,7036.00
2023-03-27T10:01:58.866Z,7080.00
2023-03-27T10:02:58.932Z,6980.00
2023-03-27T10:03:59.232Z,8600.00
2023-03-27T10:04:58.877Z,7016.00
2023-03-27T10:05:58.812Z,8520.00
2023-03-27T10:06:58.752Z,8256.00
2023-03-27T10:07:58.686Z,5288.00
2023-03-27T10:08:58.717Z,5316.00
2023-03-27T10:09:58.695Z,3232.00
2023-03-27T10:10:58.872Z,3096.00
2023-03-27T10:11:58.702Z,2844.00
2023-03-27T10:12:58.666Z,5076.00
2023-03-27T10:13:58.911Z,5088.00
2023-03-27T10:14:58.623Z,4156.00
2023-03-27T10:15:58.625Z,4776.00
2023-03-27T10:16:58.662Z,5236.00
2023-03-27T10:17:58.668Z,5516.00
2023-03-27T10:18:58.687Z,5928.00
2023-03-27T10:19:58.676Z,6284.00
2023-03-27T10:20:58.916Z,5720.00
2023-03-27T10:21:58.545Z,6980.00
2023-03-27T10:22:58.532Z,4852.00
2023-03-27T10:23:58.516Z,7496.00
2023-03-27T10:24:58.471Z,7160.00
2023-03-27T10:25:58.509Z,7684.00
2023-03-27T10:26:58.468Z,7664.00
2023-03-27T10:27:58.449Z,7060.00
2023-03-27T10:28:58.459Z,7040.00
2023-03-27T10:29:58.394Z,7052.00
2023-03-27T10:30:58.631Z,5904.00
2023-03-27T10:31:58.440Z,3976.00
2023-03-27T10:32:58.436Z,3892.00
2023-03-27T10:33:58.391Z,4076.00
2023-03-27T10:34:58.402Z,4876.00
2023-03-27T10:35:58.466Z,5496.00
2023-03-27T10:36:58.356Z,5404.00
2023-03-27T10:37:58.636Z,4948.00
2023-03-27T10:38:58.318Z,5720.00
2023-03-27T10:39:58.535Z,4128.00
2023-03-27T10:40:58.544Z,3820.00
2023-03-27T10:41:58.275Z,4140.00
2023-03-27T10:42:58.328Z,4564.00
2023-03-27T10:43:58.352Z,4636.00
2023-03-27T10:44:58.198Z,5100.00
2023-03-27T10:45:58.244Z,5944.00
2023-03-27T10:46:58.234Z,8980.00
2023-03-27T10:47:58.298Z,9360.00
2023-03-27T10:48:58.304Z,10032.00
2023-03-27T10:49:58.169Z,9488.00
2023-03-27T10:50:58.384Z,6908.00
2023-03-27T10:51:58.157Z,6016.00
2023-03-27T10:52:58.326Z,5484.00
2023-03-27T10:53:58.201Z,5344.00
2023-03-27T10:54:58.093Z,5076.00
2023-03-27T10:55:58.211Z,4664.00
2023-03-27T10:56:58.290Z,3940.00
2023-03-27T10:57:58.068Z,3252.00
2023-03-27T10:58:58.032Z,2616.00
2023-03-27T10:59:58.160Z,2008.00
2023-03-27T11:00:58.185Z,1616.00
2023-03-27T11:01:58.061Z,1464.00
2023-03-27T11:02:58.099Z,1152.00
2023-03-27T11:03:58.018Z,996.00
2023-03-27T11:04:58.032Z,856.00
2023-03-27T11:05:57.916Z,904.00
2023-03-27T11:06:57.951Z,864.00
2023-03-27T11:07:58.097Z,980.00
2023-03-27T11:08:57.860Z,1048.00
2023-03-27T11:09:58.011Z,1148.00
2023-03-27T11:10:58.109Z,1140.00
2023-03-27T11:11:57.885Z,1272.00
2023-03-27T11:12:57.858Z,1304.00
2023-03-27T11:13:57.841Z,1540.00
2023-03-27T11:14:57.815Z,1888.00
2023-03-27T11:15:57.818Z,1912.00
2023-03-27T11:16:57.898Z,1972.00
2023-03-27T11:17:57.894Z,2048.00
2023-03-27T11:18:57.800Z,4460.00
2023-03-27T11:19:57.896Z,4828.00
2023-03-27T11:20:57.887Z,4828.00
2023-03-27T11:21:57.764Z,4852.00
2023-03-27T11:22:57.764Z,4928.00
2023-03-27T11:23:57.778Z,5060.00
2023-03-27T11:24:57.806Z,5300.00
2023-03-27T11:25:57.728Z,5628.00
2023-03-27T11:26:57.658Z,6136.00
2023-03-27T11:27:57.657Z,6784.00
2023-03-27T11:28:57.693Z,7616.00
2023-03-27T11:29:57.652Z,8432.00
2023-03-27T11:30:57.888Z,8988.00
2023-03-27T11:31:57.655Z,9144.00
2023-03-27T11:32:57.596Z,9016.00
2023-03-27T11:33:57.600Z,8772.00
2023-03-27T11:34:57.554Z,8548.00
2023-03-27T11:35:57.619Z,8928.00
2023-03-27T11:36:57.552Z,8812.00
2023-03-27T11:37:57.543Z,7756.00
2023-03-27T11:38:57.487Z,8504.00
2023-03-27T11:39:57.525Z,6580.00
2023-03-27T11:40:57.706Z,6056.00
2023-03-27T11:41:57.467Z,5908.00
2023-03-27T11:42:57.569Z,4492.00
2023-03-27T11:43:57.432Z,6592.00
2023-03-27T11:44:57.443Z,7740.00
2023-03-27T11:45:57.451Z,6060.00
2023-03-27T11:46:57.425Z,4056.00
2023-03-27T11:47:57.470Z,2992.00
2023-03-27T11:48:57.385Z,2968.00
2023-03-27T11:49:57.429Z,3824.00
2023-03-27T11:50:57.582Z,4204.00
2023-03-27T11:51:57.372Z,4008.00
2023-03-27T11:52:57.353Z,3904.00
2023-03-27T11:53:57.331Z,3796.00
2023-03-27T11:54:57.341Z,2664.00
2023-03-27T11:55:57.325Z,1952.00
2023-03-27T11:56:57.334Z,1768.00
2023-03-27T11:57:57.305Z,1764.00
2023-03-27T11:58:57.258Z,1920.00
2023-03-27T11:59:57.288Z,2240.00
2023-03-27T12:00:57.546Z,4716.00
2023-03-27T12:01:57.289Z,5992.00
2023-03-27T12:02:57.354Z,6160.00
2023-03-27T12:03:57.247Z,6384.00
2023-03-27T12:04:57.234Z,6472.00
2023-03-27T12:05:57.189Z,6492.00
2023-03-27T12:07:04.002Z,6512.00
2023-03-27T12:07:58.280Z,6440.00
2023-03-27T12:08:57.148Z,6176.00
2023-03-27T12:09:57.125Z,5992.00
2023-03-27T12:10:57.254Z,5900.00
2023-03-27T12:11:57.103Z,5876.00
2023-03-27T12:12:57.112Z,5852.00
2023-03-27T12:14:01.523Z,5928.00
2023-03-27T12:14:57.081Z,6072.00
2023-03-27T12:15:57.071Z,6224.00
2023-03-27T12:16:57.092Z,6272.00
2023-03-27T12:17:57.086Z,6284.00
2023-03-27T12:19:03.809Z,6596.00
2023-03-27T12:19:58.006Z,6152.00
2023-03-27T12:20:56.994Z,7064.00
2023-03-27T12:21:57.034Z,7024.00
2023-03-27T12:22:57.079Z,6996.00
2023-03-27T12:23:56.955Z,6956.00
2023-03-27T12:24:59.730Z,7052.00
2023-03-27T12:25:56.928Z,7132.00
2023-03-27T12:26:56.917Z,6852.00
2023-03-27T12:27:56.904Z,6976.00
2023-03-27T12:28:56.899Z,7188.00
2023-03-27T12:29:56.900Z,7208.00
2023-03-27T12:30:57.069Z,7360.00
2023-03-27T12:31:56.894Z,7836.00
2023-03-27T12:32:58.931Z,8376.00
2023-03-27T12:33:56.830Z,8440.00
2023-03-27T12:34:56.831Z,8456.00
2023-03-27T12:35:56.819Z,8768.00
2023-03-27T12:36:56.830Z,9196.00
2023-03-27T12:37:56.787Z,9544.00
2023-03-27T12:38:56.749Z,9812.00
2023-03-27T12:39:56.755Z,9984.00
2023-03-27T12:40:57.116Z,10236.00
2023-03-27T12:41:56.707Z,11100.00
2023-03-27T12:42:56.759Z,11488.00
2023-03-27T12:43:56.687Z,11292.00
2023-03-27T12:44:59.497Z,11708.00
2023-03-27T12:45:56.843Z,12460.00
2023-03-27T12:46:56.678Z,12168.00
2023-03-27T12:47:56.665Z,7928.00
2023-03-27T12:48:56.638Z,10860.00
2023-03-27T12:49:56.607Z,8516.00
2023-03-27T12:50:57.024Z,6432.00
2023-03-27T12:51:56.585Z,4504.00
2023-03-27T12:52:56.607Z,3008.00
2023-03-27T12:53:56.633Z,2592.00
2023-03-27T12:54:56.560Z,2320.00
2023-03-27T12:55:56.663Z,2616.00
2023-03-27T12:56:56.566Z,3072.00
2023-03-27T12:57:56.659Z,4056.00
2023-03-27T12:58:56.760Z,5352.00
2023-03-27T12:59:56.448Z,5872.00
2023-03-27T13:00:56.745Z,5712.00
2023-03-27T13:01:56.456Z,5664.00
2023-03-27T13:02:56.545Z,5176.00
2023-03-27T13:03:56.613Z,4492.00
2023-03-27T13:04:56.578Z,4168.00
2023-03-27T13:05:56.481Z,3972.00
2023-03-27T13:06:56.425Z,3188.00
2023-03-27T13:07:56.388Z,2840.00
2023-03-27T13:08:56.454Z,2268.00
2023-03-27T13:09:56.423Z,2452.00
2023-03-27T13:10:56.539Z,2408.00
2023-03-27T13:11:56.381Z,2600.00
2023-03-27T13:12:56.309Z,3408.00
2023-03-27T13:13:56.331Z,4024.00
2023-03-27T13:14:56.281Z,5304.00
2023-03-27T13:15:56.583Z,5532.00
2023-03-27T13:17:03.808Z,5004.00
2023-03-27T13:17:56.283Z,5172.00
2023-03-27T13:18:56.200Z,4952.00
2023-03-27T13:19:56.187Z,4404.00
2023-03-27T13:20:56.187Z,3676.00
2023-03-27T13:21:56.188Z,2552.00
2023-03-27T13:22:56.170Z,1932.00
2023-03-27T13:23:56.210Z,1736.00
2023-03-27T13:24:56.125Z,1812.00
2023-03-27T13:25:56.251Z,1808.00
2023-03-27T13:26:56.151Z,2372.00
2023-03-27T13:27:56.131Z,3080.00
2023-03-27T13:28:56.281Z,3840.00
2023-03-27T13:29:56.177Z,4196.00
2023-03-27T13:30:56.146Z,4324.00
2023-03-27T13:31:56.058Z,4204.00
2023-03-27T13:32:56.099Z,3816.00
2023-03-27T13:33:56.038Z,3436.00
2023-03-27T13:34:56.086Z,3132.00
2023-03-27T13:35:56.219Z,3064.00
2023-03-27T13:37:06.107Z,3056.00
2023-03-27T13:37:56.985Z,3116.00
2023-03-27T13:38:56.000Z,3200.00
2023-03-27T13:39:55.946Z,3320.00
2023-03-27T13:40:55.933Z,3464.00
2023-03-27T13:41:55.940Z,3624.00
2023-03-27T13:42:55.953Z,3688.00
2023-03-27T13:43:55.959Z,3596.00
2023-03-27T13:44:55.870Z,3604.00
2023-03-27T13:45:56.116Z,3792.00
2023-03-27T13:46:55.979Z,4000.00
2023-03-27T13:47:55.911Z,4240.00
2023-03-27T13:48:55.951Z,4420.00
2023-03-27T13:49:55.836Z,4360.00
2023-03-27T13:50:55.808Z,4040.00
2023-03-27T13:51:55.836Z,3604.00
2023-03-27T13:52:55.783Z,3284.00
2023-03-27T13:53:55.846Z,3072.00
2023-03-27T13:54:55.828Z,4108.00
2023-03-27T13:55:55.878Z,6124.00
2023-03-27T13:56:55.746Z,7576.00
2023-03-27T13:57:55.734Z,7256.00
2023-03-27T13:58:55.760Z,7184.00
2023-03-27T13:59:55.756Z,7068.00
2023-03-27T14:00:55.699Z,6968.00
2023-03-27T14:01:55.673Z,6888.00
2023-03-27T14:02:55.765Z,6880.00
2023-03-27T14:03:55.727Z,6860.00
2023-03-27T14:04:55.651Z,6924.00
2023-03-27T14:05:57.073Z,3140.00
2023-03-27T14:06:55.619Z,4492.00
2023-03-27T14:07:55.643Z,5740.00
2023-03-27T14:08:55.569Z,6824.00
2023-03-27T14:09:55.558Z,7200.00
2023-03-27T14:10:55.556Z,7000.00
2023-03-27T14:11:55.557Z,6372.00
2023-03-27T14:12:55.571Z,6688.00
2023-03-27T14:13:55.536Z,6632.00
2023-03-27T14:14:55.493Z,6596.00
2023-03-27T14:15:55.650Z,6584.00
2023-03-27T14:16:55.505Z,6548.00
2023-03-27T14:17:55.494Z,6564.00
2023-03-27T14:18:55.438Z,6556.00
2023-03-27T14:19:55.445Z,6548.00
2023-03-27T14:20:55.433Z,6552.00
2023-03-27T14:21:55.407Z,6560.00
2023-03-27T14:22:55.434Z,6576.00
2023-03-27T14:23:55.430Z,6624.00
2023-03-27T14:24:55.339Z,6856.00
2023-03-27T14:25:55.496Z,7248.00
2023-03-27T14:26:55.367Z,7620.00
2023-03-27T14:27:55.337Z,8108.00
2023-03-27T14:28:55.431Z,8416.00
2023-03-27T14:29:55.293Z,8240.00
2023-03-27T14:30:55.256Z,8040.00
2023-03-27T14:31:55.297Z,3996.00
2023-03-27T14:32:55.340Z,3300.00
2023-03-27T14:33:55.234Z,2976.00
2023-03-27T14:34:55.215Z,2608.00
2023-03-27T14:35:55.398Z,2324.00
2023-03-27T14:36:55.206Z,2304.00
2023-03-27T14:37:55.404Z,2260.00
2023-03-27T14:38:55.180Z,2272.00
2023-03-27T14:39:55.142Z,2004.00
2023-03-27T14:40:55.148Z,1724.00
2023-03-27T14:41:55.129Z,1784.00
2023-03-27T14:42:55.133Z,1944.00
2023-03-27T14:43:55.089Z,2040.00
2023-03-27T14:44:55.131Z,2048.00
2023-03-27T14:45:55.350Z,2092.00
2023-03-27T14:46:55.089Z,2236.00
2023-03-27T14:47:55.076Z,2408.00
2023-03-27T14:48:56.258Z,2780.00
2023-03-27T14:49:55.068Z,2956.00
2023-03-27T14:50:55.126Z,5684.00
2023-03-27T14:51:55.006Z,6364.00
2023-03-27T14:52:55.423Z,6188.00
2023-03-27T14:53:55.038Z,6128.00
2023-03-27T14:54:55.666Z,6104.00
2023-03-27T14:55:55.081Z,6072.00
2023-03-27T14:56:55.135Z,6068.00
2023-03-27T14:57:55.321Z,6056.00
2023-03-27T14:58:54.969Z,6044.00
2023-03-27T14:59:54.906Z,6064.00
2023-03-27T15:00:54.848Z,6084.00
2023-03-27T15:01:54.926Z,6108.00
2023-03-27T15:02:55.018Z,6144.00
2023-03-27T15:03:54.860Z,6124.00
2023-03-27T15:04:54.824Z,6184.00
2023-03-27T15:06:01.470Z,6380.00
2023-03-27T15:06:54.746Z,6684.00
2023-03-27T15:07:54.819Z,6944.00
2023-03-27T15:08:54.777Z,7120.00
2023-03-27T15:09:54.724Z,7200.00
2023-03-27T15:10:54.782Z,7184.00
2023-03-27T15:11:54.725Z,7032.00
2023-03-27T15:12:54.714Z,6556.00
2023-03-27T15:14:00.924Z,6312.00
2023-03-27T15:14:54.639Z,6272.00
2023-03-27T15:15:54.680Z,6244.00
2023-03-27T15:16:54.716Z,6096.00
2023-03-27T15:17:54.987Z,6040.00
2023-03-27T15:18:54.643Z,6032.00
2023-03-27T15:19:54.643Z,6044.00
2023-03-27T15:20:56.505Z,6100.00
2023-03-27T15:21:54.558Z,6260.00
2023-03-27T15:22:54.575Z,6564.00
2023-03-27T15:23:54.590Z,6880.00
2023-03-27T15:24:59.891Z,7452.00
2023-03-27T15:25:54.781Z,7568.00
2023-03-27T15:26:54.495Z,7552.00
2023-03-27T15:27:54.478Z,7936.00
2023-03-27T15:28:54.521Z,8520.00
2023-03-27T15:29:54.615Z,8912.00
2023-03-27T15:30:54.493Z,9348.00
2023-03-27T15:31:54.515Z,9092.00
2023-03-27T15:33:00.484Z,7996.00
2023-03-27T15:33:54.988Z,7208.00
2023-03-27T15:34:56.149Z,6640.00
2023-03-27T15:35:58.524Z,6364.00
2023-03-27T15:36:55.601Z,6080.00
2023-03-27T15:37:55.559Z,5804.00
2023-03-27T15:39:05.049Z,5596.00
2023-03-27T15:39:54.429Z,5524.00
2023-03-27T15:41:00.853Z,5488.00
2023-03-27T15:41:54.532Z,5404.00
2023-03-27T15:43:04.367Z,5372.00
2023-03-27T15:43:54.317Z,5404.00
2023-03-27T15:44:54.474Z,5416.00
2023-03-27T15:45:54.315Z,5400.00
2023-03-27T15:46:54.417Z,5372.00
2023-03-27T15:47:54.325Z,5228.00
2023-03-27T15:48:54.227Z,5348.00
2023-03-27T15:49:54.366Z,5348.00
2023-03-27T15:50:54.157Z,5376.00
2023-03-27T15:51:54.180Z,5416.00
2023-03-27T15:52:54.240Z,5440.00
2023-03-27T15:53:54.269Z,5548.00
2023-03-27T15:54:54.153Z,5636.00
2023-03-27T15:55:54.146Z,5672.00
2023-03-27T15:57:10.185Z,5680.00
2023-03-27T15:57:55.127Z,5620.00
2023-03-27T15:58:54.095Z,3476.00
2023-03-27T15:59:54.126Z,4032.00
2023-03-27T16:00:54.156Z,2052.00
2023-03-27T16:01:54.140Z,1956.00
2023-03-27T16:02:54.163Z,1888.00
2023-03-27T16:03:56.100Z,1964.00
2023-03-27T16:04:54.407Z,2040.00
2023-03-27T16:05:54.026Z,1872.00
2023-03-27T16:06:54.442Z,1728.00
2023-03-27T16:08:03.659Z,1612.00
2023-03-27T16:08:53.927Z,3224.00
2023-03-27T16:09:54.744Z,1712.00
2023-03-27T16:10:53.931Z,1772.00
2023-03-27T16:11:54.781Z,1796.00
2023-03-27T16:12:56.108Z,1832.00
2023-03-27T16:13:55.548Z,1760.00
2023-03-27T16:15:00.557Z,1760.00
2023-03-27T16:16:08.898Z,2648.00
2023-03-27T16:16:53.808Z,2752.00
2023-03-27T16:17:53.931Z,2800.00
2023-03-27T16:18:55.054Z,2860.00
2023-03-27T16:19:54.472Z,2952.00
2023-03-27T16:20:53.779Z,3036.00
2023-03-27T16:21:53.740Z,3180.00
2023-03-27T16:22:56.159Z,3380.00
2023-03-27T16:25:05.977Z,67108860.00
2023-03-27T16:26:05.918Z,67108860.00
2023-03-27T16:27:05.919Z,67108860.00
2023-03-27T16:28:05.881Z,67108860.00
2023-03-27T16:29:05.854Z,67108860.00
2023-03-27T16:30:05.886Z,67108860.00
2023-03-27T16:31:05.845Z,67108860.00
2023-03-27T16:32:05.915Z,67108860.00
2023-03-27T16:33:05.831Z,67108860.00
2023-03-27T16:34:05.919Z,67108860.00
2023-03-27T16:35:05.761Z,67108860.00
2023-03-27T16:36:05.871Z,67108860.00
2023-03-27T16:37:05.793Z,67108860.00
2023-03-27T16:38:05.743Z,67108860.00
2023-03-27T16:39:05.874Z,67108860.00
2023-03-27T16:40:05.961Z,67108860.00
2023-03-27T16:41:05.744Z,67108860.00
2023-03-27T16:42:05.695Z,67108860.00
2023-03-27T16:43:05.732Z,67108860.00
2023-03-27T16:44:05.708Z,67108860.00
2023-03-27T16:45:05.694Z,67108860.00
2023-03-27T16:46:05.764Z,67108860.00
2023-03-27T16:47:05.631Z,67108860.00
2023-03-27T16:48:05.827Z,67108860.00
2023-03-27T16:49:14.351Z,67108860.00
2023-03-27T16:50:11.559Z,67108860.00
2023-03-27T16:51:07.813Z,67108860.00
2023-03-27T16:52:07.253Z,67108860.00
2023-03-27T16:53:05.658Z,67108860.00
2023-03-27T16:54:05.737Z,67108860.00
2023-03-27T16:55:07.450Z,67108860.00
2023-03-27T16:56:05.514Z,67108860.00
2023-03-27T16:57:05.548Z,67108860.00
2023-03-27T16:58:05.602Z,67108860.00
2023-03-27T16:59:05.469Z,67108860.00
2023-03-27T17:00:14.009Z,67108860.00
2023-03-27T17:01:05.733Z,67108860.00
2023-03-27T17:02:05.430Z,67108860.00
2023-03-27T17:03:38.978Z,932.00
2023-03-27T17:04:39.075Z,908.00
2023-03-27T17:05:38.966Z,900.00
2023-03-27T17:06:39.195Z,868.00
2023-03-27T17:07:38.988Z,860.00
2023-03-27T17:08:56.061Z,848.00
2023-03-27T17:09:39.052Z,828.00
2023-03-27T17:10:38.886Z,824.00
2023-03-27T17:11:49.794Z,836.00
2023-03-27T17:12:38.882Z,836.00
2023-03-27T17:13:40.865Z,824.00
2023-03-27T17:14:38.891Z,808.00
2023-03-27T17:15:38.893Z,792.00
2023-03-27T17:16:38.917Z,772.00
2023-03-27T17:17:39.059Z,764.00
2023-03-27T17:18:38.833Z,736.00
2023-03-27T17:19:38.816Z,724.00
2023-03-27T17:20:46.429Z,704.00
2023-03-27T17:21:38.745Z,680.00
2023-03-27T17:22:38.866Z,664.00
2023-03-27T17:23:38.926Z,648.00
2023-03-27T17:24:53.210Z,640.00
2023-03-27T17:25:39.729Z,640.00
2023-03-27T17:26:38.723Z,636.00
2023-03-27T17:27:38.734Z,620.00
2023-03-27T17:28:38.747Z,596.00
2023-03-27T17:29:38.857Z,580.00
2023-03-27T17:30:44.650Z,564.00